createdAt,value
2019-01-27T00:01:01.124Z,76.55
2019-01-27T00:03:32.177Z,76.31
2019-01-27T00:06:02.566Z,76.11
2019-01-27T00:08:35.130Z,75.99
2019-01-27T00:11:05.929Z,75.99
2019-01-27T00:13:38.822Z,75.87
2019-01-27T00:16:10.563Z,75.99
2019-01-27T00:18:43.112Z,75.95
2019-01-27T00:21:14.379Z,76.09
2019-01-27T00:23:48.855Z,76.09
2019-01-27T00:26:19.501Z,76.37
2019-01-27T00:28:53.793Z,77.02
2019-01-27T00:31:24.343Z,78.16
2019-01-27T00:33:56.252Z,79.01
2019-01-27T00:36:28.448Z,79.87
2019-01-27T00:38:58.995Z,80.65
2019-01-27T00:41:29.722Z,81.37
2019-01-27T00:44:02.820Z,81.82
2019-01-27T00:46:33.400Z,82.31
2019-01-27T00:49:05.666Z,82.50
2019-01-27T00:51:36.106Z,82.73
2019-01-27T00:54:08.018Z,83.05
2019-01-27T00:56:38.640Z,83.21
2019-01-27T00:59:08.954Z,83.37
2019-01-27T01:01:39.448Z,83.50
2019-01-27T01:04:09.733Z,83.66
2019-01-27T01:06:40.436Z,83.75
2019-01-27T01:09:13.701Z,83.82
2019-01-27T01:11:44.137Z,83.93
2019-01-27T01:14:14.461Z,84.03
2019-01-27T01:16:45.063Z,84.09
2019-01-27T01:19:15.405Z,84.16
2019-01-27T01:21:46.034Z,84.25
2019-01-27T01:24:16.368Z,84.32
2019-01-27T01:26:48.032Z,84.41
2019-01-27T01:29:18.505Z,84.47
2019-01-27T01:31:48.841Z,84.55
2019-01-27T01:34:19.195Z,84.62
2019-01-27T01:36:49.668Z,84.67
2019-01-27T01:39:20.340Z,84.75
2019-01-27T01:41:50.861Z,84.79
2019-01-27T01:44:21.286Z,84.84
2019-01-27T01:46:56.005Z,84.91
2019-01-27T01:49:25.107Z,84.97
2019-01-27T01:51:58.063Z,85.05
2019-01-27T01:54:29.632Z,85.08
2019-01-27T01:56:59.992Z,85.11
2019-01-27T01:59:30.789Z,85.17
2019-01-27T02:02:01.348Z,85.22
2019-01-27T02:04:31.916Z,85.21
2019-01-27T02:07:03.285Z,85.26
2019-01-27T02:09:35.585Z,85.62
2019-01-27T02:12:06.030Z,85.62
2019-01-27T02:14:44.774Z,85.38
2019-01-27T02:17:15.090Z,85.39
2019-01-27T02:19:52.100Z,85.44
2019-01-27T02:22:22.447Z,85.44
2019-01-27T02:24:53.258Z,85.46
2019-01-27T02:27:23.567Z,85.50
2019-01-27T02:29:55.326Z,85.51
2019-01-27T02:32:27.393Z,85.53
2019-01-27T02:34:58.146Z,85.42
2019-01-27T02:37:31.910Z,85.42
2019-01-27T02:40:02.249Z,85.60
2019-01-27T02:42:32.825Z,85.63
2019-01-27T02:45:07.961Z,85.62
2019-01-27T02:47:39.921Z,85.67
2019-01-27T02:50:11.857Z,85.65
2019-01-27T02:52:42.126Z,85.66
2019-01-27T02:55:13.880Z,85.70
2019-01-27T02:57:44.161Z,85.70
2019-01-27T03:00:14.951Z,85.75
2019-01-27T03:02:46.657Z,85.75
2019-01-27T03:05:45.026Z,85.74
2019-01-27T03:08:15.826Z,85.72
2019-01-27T03:10:48.557Z,85.71
2019-01-27T03:13:20.187Z,85.72
2019-01-27T03:15:55.659Z,85.71
2019-01-27T03:18:26.805Z,85.73
2019-01-27T03:21:01.595Z,85.74
2019-01-27T03:23:32.718Z,85.75
2019-01-27T03:26:03.014Z,85.77
2019-01-27T03:28:34.414Z,85.76
2019-01-27T03:31:06.098Z,85.76
2019-01-27T03:33:37.875Z,85.75
2019-01-27T03:36:08.306Z,85.73
2019-01-27T03:38:38.990Z,85.74
2019-01-27T03:41:10.853Z,85.75
2019-01-27T03:43:45.161Z,85.73
2019-01-27T03:46:15.600Z,85.75
2019-01-27T03:48:49.963Z,85.74
2019-01-27T03:51:20.306Z,85.75
2019-01-27T03:53:52.474Z,85.73
2019-01-27T03:56:23.024Z,85.76
2019-01-27T03:58:59.662Z,85.77
2019-01-27T04:01:29.924Z,85.78
2019-01-27T04:04:02.560Z,85.77
2019-01-27T04:06:33.216Z,85.77
2019-01-27T04:09:07.703Z,85.80
2019-01-27T04:11:38.363Z,85.79
2019-01-27T04:14:10.573Z,85.82
2019-01-27T04:16:41.155Z,85.82
2019-01-27T04:19:11.550Z,85.83
2019-01-27T04:21:41.885Z,85.83
2019-01-27T04:24:14.021Z,85.84
2019-01-27T04:26:44.444Z,85.86
2019-01-27T04:29:17.507Z,85.85
2019-01-27T04:31:48.090Z,85.87
2019-01-27T04:34:25.271Z,85.85
2019-01-27T04:36:55.529Z,85.83
2019-01-27T04:39:25.851Z,85.83
2019-01-27T04:41:56.402Z,85.80
2019-01-27T04:44:43.756Z,85.82
2019-01-27T04:47:06.115Z,85.75
2019-01-27T04:49:46.062Z,85.72
2019-01-27T04:52:13.457Z,85.99
2019-01-27T04:54:45.020Z,85.99
2019-01-27T04:57:15.603Z,85.64
2019-01-27T05:00:10.453Z,85.58
2019-01-27T05:02:21.574Z,85.55
2019-01-27T05:04:52.104Z,85.54
2019-01-27T05:07:22.388Z,85.54
2019-01-27T05:09:53.067Z,85.54
2019-01-27T05:12:23.464Z,85.52
2019-01-27T05:14:55.405Z,85.49
2019-01-27T05:17:25.711Z,85.47
2019-01-27T05:19:56.118Z,85.44
2019-01-27T05:22:28.011Z,85.27
2019-01-27T05:24:59.932Z,85.27
2019-01-27T05:27:30.517Z,85.31
2019-01-27T05:30:00.823Z,85.21
2019-01-27T05:32:31.566Z,85.36
2019-01-27T05:35:03.185Z,85.36
2019-01-27T05:37:33.693Z,85.13
2019-01-27T05:40:05.520Z,85.11
2019-01-27T05:42:36.766Z,85.10
2019-01-27T05:45:08.530Z,85.09
2019-01-27T05:47:40.024Z,85.06
2019-01-27T05:50:16.106Z,85.00
2019-01-27T05:52:46.624Z,84.94
2019-01-27T05:55:21.091Z,84.70
2019-01-27T05:57:53.254Z,84.34
2019-01-27T06:00:33.373Z,84.07
2019-01-27T06:03:05.098Z,83.84
2019-01-27T06:05:39.332Z,83.60
2019-01-27T06:08:10.174Z,83.37
2019-01-27T06:10:42.587Z,83.03
2019-01-27T06:13:12.807Z,82.77
2019-01-27T06:15:43.117Z,82.51
2019-01-27T06:18:14.625Z,82.31
2019-01-27T06:20:48.132Z,82.03
2019-01-27T06:23:20.937Z,81.79
2019-01-27T06:25:55.006Z,81.75
2019-01-27T06:28:25.626Z,81.75
2019-01-27T06:30:55.920Z,81.78
2019-01-27T06:33:46.016Z,81.73
2019-01-27T06:36:16.616Z,81.74
2019-01-27T06:38:46.965Z,81.74
2019-01-27T06:41:18.216Z,81.55
2019-01-27T06:43:48.425Z,81.54
2019-01-27T06:46:19.036Z,81.61
2019-01-27T06:48:50.408Z,81.73
2019-01-27T06:51:20.816Z,81.86
2019-01-27T06:53:51.130Z,81.98
2019-01-27T06:56:23.333Z,82.07
2019-01-27T06:59:12.774Z,82.15
2019-01-27T07:02:07.936Z,82.10
2019-01-27T07:05:16.226Z,81.96
2019-01-27T07:08:02.994Z,81.66
2019-01-27T07:10:47.514Z,81.24
2019-01-27T07:13:39.810Z,81.00
2019-01-27T07:16:23.332Z,80.84
2019-01-27T07:19:11.836Z,80.48
2019-01-27T07:22:13.117Z,80.10
2019-01-27T07:25:02.598Z,79.88
2019-01-27T07:27:49.938Z,79.73
2019-01-27T07:30:39.314Z,79.65
2019-01-27T07:33:28.184Z,79.21
2019-01-27T07:36:18.754Z,78.91
2019-01-27T07:39:11.702Z,78.70
2019-01-27T07:41:53.058Z,78.39
2019-01-27T07:44:33.863Z,77.98
2019-01-27T07:47:09.679Z,77.98
2019-01-27T07:49:54.638Z,77.77
2019-01-27T07:52:52.260Z,77.92
2019-01-27T07:55:49.889Z,77.55
2019-01-27T07:58:43.864Z,77.31
2019-01-27T08:01:42.144Z,77.27
2019-01-27T08:04:46.359Z,77.24
2019-01-27T08:07:42.226Z,77.00
2019-01-27T08:10:23.138Z,76.84
2019-01-27T08:13:25.220Z,76.47
2019-01-27T08:16:14.974Z,76.29
2019-01-27T08:19:09.745Z,75.77
2019-01-27T08:22:01.170Z,75.93
2019-01-27T08:24:53.450Z,76.11
2019-01-27T08:27:48.163Z,75.73
2019-01-27T08:30:41.030Z,75.96
2019-01-27T08:33:28.817Z,75.81
2019-01-27T08:36:19.769Z,75.45
2019-01-27T08:39:11.647Z,75.25
2019-01-27T08:42:02.722Z,75.42
2019-01-27T08:44:58.955Z,75.25
2019-01-27T08:47:29.277Z,74.96
2019-01-27T08:50:00.104Z,74.53
2019-01-27T08:52:30.975Z,74.53
2019-01-27T08:55:01.288Z,73.55
2019-01-27T08:57:31.693Z,73.74
2019-01-27T09:00:02.017Z,72.86
2019-01-27T09:03:03.654Z,72.97
2019-01-27T09:05:59.814Z,73.32
2019-01-27T09:08:47.784Z,73.08
2019-01-27T09:11:38.121Z,73.08
2019-01-27T09:14:27.413Z,72.36
2019-01-27T09:17:15.951Z,72.28
2019-01-27T09:20:24.225Z,72.51
2019-01-27T09:23:30.787Z,72.62
2019-01-27T09:26:20.343Z,72.39
2019-01-27T09:28:58.228Z,72.69
2019-01-27T09:31:47.542Z,73.19
2019-01-27T09:34:34.346Z,74.05
2019-01-27T09:37:14.084Z,74.63
2019-01-27T09:40:06.034Z,74.63
2019-01-27T09:42:55.639Z,74.39
2019-01-27T09:45:39.489Z,74.64
2019-01-27T09:48:20.222Z,74.70
2019-01-27T09:51:12.582Z,75.04
2019-01-27T09:54:03.397Z,75.67
2019-01-27T09:57:12.134Z,76.30
2019-01-27T10:00:10.504Z,77.24
2019-01-27T10:02:45.447Z,78.71
2019-01-27T10:05:43.911Z,80.10
2019-01-27T10:08:32.953Z,80.81
2019-01-27T10:11:09.662Z,81.47
2019-01-27T10:14:00.026Z,81.95
2019-01-27T10:16:50.977Z,82.31
2019-01-27T10:19:46.225Z,82.58
2019-01-27T10:22:34.209Z,82.83
2019-01-27T10:25:26.150Z,82.79
2019-01-27T10:28:21.785Z,82.85
2019-01-27T10:31:11.599Z,82.88
2019-01-27T10:33:57.686Z,82.93
2019-01-27T10:36:45.525Z,83.06
2019-01-27T10:39:36.897Z,82.96
2019-01-27T10:42:21.249Z,82.59
2019-01-27T10:45:13.433Z,82.64
2019-01-27T10:48:04.024Z,82.71
2019-01-27T10:50:52.311Z,82.70
2019-01-27T10:53:47.744Z,82.72
2019-01-27T10:56:27.421Z,83.03
2019-01-27T10:59:21.157Z,83.03
2019-01-27T11:02:09.002Z,83.04
2019-01-27T11:04:57.246Z,82.72
2019-01-27T11:07:38.151Z,82.74
2019-01-27T11:10:24.141Z,82.71
2019-01-27T11:13:16.401Z,82.67
2019-01-27T11:16:12.098Z,82.72
2019-01-27T11:19:00.297Z,82.78
2019-01-27T11:21:48.975Z,82.65
2019-01-27T11:24:38.698Z,82.77
2019-01-27T11:27:36.359Z,82.75
2019-01-27T11:30:18.465Z,82.61
2019-01-27T11:33:20.042Z,82.62
2019-01-27T11:36:12.979Z,82.54
2019-01-27T11:39:03.391Z,82.71
2019-01-27T11:41:59.941Z,82.94
2019-01-27T11:44:48.465Z,83.04
2019-01-27T11:47:37.302Z,83.17
2019-01-27T11:50:43.955Z,83.31
2019-01-27T11:53:14.673Z,83.39
2019-01-27T11:55:46.674Z,83.41
2019-01-27T11:58:17.049Z,83.44
2019-01-27T12:00:50.980Z,83.52
2019-01-27T12:03:25.005Z,83.43
2019-01-27T12:05:57.243Z,83.22
2019-01-27T12:08:28.071Z,83.04
2019-01-27T12:10:58.637Z,83.03
2019-01-27T12:13:29.057Z,82.85
2019-01-27T12:15:59.362Z,82.75
2019-01-27T12:18:30.013Z,82.73
2019-01-27T12:21:00.353Z,82.77
2019-01-27T12:23:43.234Z,82.89
2019-01-27T12:26:06.104Z,82.84
2019-01-27T12:28:36.485Z,82.99
2019-01-27T12:31:06.906Z,83.17
2019-01-27T12:33:37.179Z,83.30
2019-01-27T12:36:08.046Z,83.37
2019-01-27T12:38:40.286Z,83.51
2019-01-27T12:41:10.749Z,83.64
2019-01-27T12:43:41.039Z,83.71
2019-01-27T12:46:11.910Z,83.76
2019-01-27T12:48:42.553Z,83.84
2019-01-27T12:51:14.723Z,83.97
2019-01-27T12:53:47.715Z,84.01
2019-01-27T12:56:19.380Z,84.04
2019-01-27T12:58:54.865Z,84.03
2019-01-27T13:01:23.699Z,84.03
2019-01-27T13:03:54.173Z,84.10
2019-01-27T13:06:24.733Z,84.11
2019-01-27T13:08:55.510Z,84.13
2019-01-27T13:11:25.900Z,84.17
2019-01-27T13:13:56.332Z,84.18
2019-01-27T13:16:27.034Z,84.15
2019-01-27T13:18:57.809Z,84.20
2019-01-27T13:21:37.385Z,84.22
2019-01-27T13:24:09.231Z,84.23
2019-01-27T13:26:39.535Z,84.25
2019-01-27T13:29:09.883Z,84.24
2019-01-27T13:31:40.504Z,84.29
2019-01-27T13:34:10.851Z,84.31
2019-01-27T13:36:45.062Z,84.30
2019-01-27T13:39:15.747Z,84.34
2019-01-27T13:41:46.698Z,84.35
2019-01-27T13:44:17.139Z,84.36
2019-01-27T13:46:47.501Z,84.36
2019-01-27T13:49:17.784Z,84.38
2019-01-27T13:51:48.757Z,84.40
2019-01-27T13:54:20.514Z,84.50
2019-01-27T13:56:52.584Z,84.61
2019-01-27T13:59:23.028Z,84.66
2019-01-27T14:01:53.705Z,84.64
2019-01-27T14:04:24.087Z,84.58
2019-01-27T14:06:57.315Z,84.60
2019-01-27T14:09:30.011Z,84.59
2019-01-27T14:12:01.877Z,84.94
2019-01-27T14:14:32.247Z,84.94
2019-01-27T14:17:04.561Z,84.63
2019-01-27T14:19:34.902Z,84.62
2019-01-27T14:22:07.213Z,84.65
2019-01-27T14:24:37.827Z,84.94
2019-01-27T14:27:09.969Z,84.94
2019-01-27T14:29:40.290Z,84.68
2019-01-27T14:32:12.641Z,84.67
2019-01-27T14:34:44.700Z,84.68
2019-01-27T14:37:19.324Z,84.72
2019-01-27T14:39:54.459Z,84.76
2019-01-27T14:42:25.276Z,84.75
2019-01-27T14:45:01.640Z,84.79
2019-01-27T14:47:32.911Z,84.76
2019-01-27T14:50:10.335Z,84.77
2019-01-27T14:52:40.934Z,84.70
2019-01-27T14:55:16.014Z,84.68
2019-01-27T14:57:48.225Z,84.62
2019-01-27T15:00:21.801Z,84.56
2019-01-27T15:02:59.007Z,84.60
2019-01-27T15:05:29.704Z,84.59
2019-01-27T15:08:00.348Z,84.63
2019-01-27T15:10:32.469Z,84.68
2019-01-27T15:13:05.406Z,84.71
2019-01-27T15:15:37.151Z,84.71
2019-01-27T15:18:16.496Z,84.95
2019-01-27T15:20:51.400Z,84.95
2019-01-27T15:23:21.798Z,84.40
2019-01-27T15:25:52.427Z,84.38
2019-01-27T15:28:25.175Z,84.41
2019-01-27T15:30:55.853Z,84.49
2019-01-27T15:33:27.850Z,84.49
2019-01-27T15:35:58.450Z,84.51
2019-01-27T15:38:35.173Z,84.51
2019-01-27T15:41:05.850Z,84.66
2019-01-27T15:43:38.661Z,84.71
2019-01-27T15:46:09.219Z,84.78
2019-01-27T15:48:40.488Z,84.75
2019-01-27T15:51:12.412Z,84.73
2019-01-27T15:53:43.249Z,84.73
2019-01-27T15:56:15.207Z,84.75
2019-01-27T15:58:45.907Z,84.79
2019-01-27T16:01:17.431Z,84.78
2019-01-27T16:03:47.975Z,84.82
2019-01-27T16:06:18.282Z,84.86
2019-01-27T16:08:49.002Z,84.90
2019-01-27T16:11:23.748Z,84.94
2019-01-27T16:13:54.448Z,84.97
2019-01-27T16:16:28.168Z,85.02
2019-01-27T16:18:58.979Z,85.05
2019-01-27T16:21:38.001Z,85.08
2019-01-27T16:24:06.543Z,85.08
2019-01-27T16:26:36.899Z,85.05
2019-01-27T16:29:07.537Z,85.09
2019-01-27T16:31:49.181Z,85.12
2019-01-27T16:34:37.368Z,85.49
2019-01-27T16:37:08.115Z,85.49
2019-01-27T16:39:47.010Z,85.16
2019-01-27T16:42:18.802Z,85.17
2019-01-27T16:44:51.926Z,85.18
2019-01-27T16:47:21.734Z,85.18
2019-01-27T16:49:56.635Z,85.17
2019-01-27T16:52:27.335Z,85.17
2019-01-27T16:54:57.939Z,85.10
2019-01-27T16:57:29.712Z,85.02
2019-01-27T17:00:01.183Z,85.04
2019-01-27T17:02:39.661Z,85.03
2019-01-27T17:05:11.911Z,85.05
2019-01-27T17:07:42.482Z,85.05
2019-01-27T17:10:13.512Z,85.01
2019-01-27T17:12:44.294Z,85.07
2019-01-27T17:15:15.005Z,85.13
2019-01-27T17:17:45.415Z,85.20
2019-01-27T17:20:17.189Z,85.30
2019-01-27T17:22:51.258Z,85.32
2019-01-27T17:25:40.722Z,85.33
2019-01-27T17:28:07.225Z,85.26
2019-01-27T17:30:37.884Z,85.24
2019-01-27T17:33:08.563Z,85.18
2019-01-27T17:35:40.235Z,85.17
2019-01-27T17:38:10.836Z,85.16
2019-01-27T17:40:44.916Z,85.14
2019-01-27T17:43:20.027Z,85.12
2019-01-27T17:45:50.604Z,85.09
2019-01-27T17:48:21.022Z,85.01
2019-01-27T17:50:51.436Z,84.88
2019-01-27T17:53:21.831Z,84.81
2019-01-27T17:55:52.235Z,84.79
2019-01-27T17:58:54.522Z,84.78
2019-01-27T18:01:50.443Z,84.69
2019-01-27T18:04:39.025Z,84.65
2019-01-27T18:07:28.360Z,84.53
2019-01-27T18:10:23.480Z,84.45
2019-01-27T18:12:58.964Z,84.13
2019-01-27T18:15:32.584Z,83.72
2019-01-27T18:18:03.230Z,83.39
2019-01-27T18:20:35.842Z,82.95
2019-01-27T18:23:08.228Z,82.33
2019-01-27T18:25:39.920Z,81.67
2019-01-27T18:28:21.112Z,81.02
2019-01-27T18:30:54.868Z,80.49
2019-01-27T18:33:26.301Z,79.93
2019-01-27T18:35:56.947Z,79.37
2019-01-27T18:38:27.366Z,79.32
2019-01-27T18:40:57.947Z,79.43
2019-01-27T18:43:32.173Z,79.06
2019-01-27T18:46:05.181Z,79.02
2019-01-27T18:48:35.771Z,79.09
2019-01-27T18:51:06.799Z,79.07
2019-01-27T18:54:01.308Z,78.95
2019-01-27T18:56:56.796Z,78.98
2019-01-27T18:59:45.868Z,79.09
2019-01-27T19:02:35.574Z,79.31
2019-01-27T19:05:22.314Z,79.43
2019-01-27T19:08:12.712Z,79.42
2019-01-27T19:11:10.545Z,79.61
2019-01-27T19:13:56.279Z,79.81
2019-01-27T19:16:36.812Z,80.00
2019-01-27T19:19:17.470Z,80.04
2019-01-27T19:22:15.611Z,80.02
2019-01-27T19:25:23.270Z,80.00
2019-01-27T19:28:21.453Z,79.96
2019-01-27T19:31:23.073Z,79.95
2019-01-27T19:34:09.970Z,79.98
2019-01-27T19:37:00.985Z,80.11
2019-01-27T19:39:50.192Z,80.28
2019-01-27T19:42:39.491Z,80.30
2019-01-27T19:45:39.640Z,80.46
2019-01-27T19:48:38.172Z,80.70
2019-01-27T19:51:26.572Z,80.75
2019-01-27T19:54:28.236Z,80.67
2019-01-27T19:57:28.495Z,80.75
2019-01-27T20:00:09.475Z,80.98
2019-01-27T20:03:06.678Z,81.27
2019-01-27T20:05:55.650Z,81.41
2019-01-27T20:08:44.925Z,81.71
2019-01-27T20:11:34.269Z,81.65
2019-01-27T20:14:16.435Z,81.65
2019-01-27T20:16:55.517Z,82.14
2019-01-27T20:19:37.143Z,82.27
2019-01-27T20:22:26.447Z,82.01
2019-01-27T20:25:14.507Z,81.49
2019-01-27T20:28:10.513Z,80.97
2019-01-27T20:30:59.795Z,80.38
2019-01-27T20:33:50.669Z,79.84
2019-01-27T20:36:55.776Z,79.66
2019-01-27T20:39:48.012Z,79.77
2019-01-27T20:42:37.550Z,80.13
2019-01-27T20:45:31.688Z,80.44
2019-01-27T20:48:10.970Z,80.50
2019-01-27T20:51:05.131Z,80.79
2019-01-27T20:53:53.752Z,80.90
2019-01-27T20:56:48.336Z,80.83
2019-01-27T20:59:24.744Z,80.88
2019-01-27T21:02:09.821Z,80.69
2019-01-27T21:04:59.859Z,81.01
2019-01-27T21:07:52.325Z,81.01
2019-01-27T21:10:41.406Z,80.89
2019-01-27T21:13:28.968Z,80.84
2019-01-27T21:16:36.909Z,80.90
2019-01-27T21:19:39.946Z,80.90
2019-01-27T21:22:10.543Z,81.02
2019-01-27T21:24:42.545Z,80.90
2019-01-27T21:27:17.650Z,80.71
2019-01-27T21:29:49.856Z,80.48
2019-01-27T21:32:33.787Z,80.23
2019-01-27T21:35:04.595Z,79.96
2019-01-27T21:37:36.481Z,79.68
2019-01-27T21:40:19.513Z,79.66
2019-01-27T21:42:57.390Z,79.62
2019-01-27T21:45:26.408Z,79.86
2019-01-27T21:47:57.390Z,80.25
2019-01-27T21:50:30.917Z,80.55
2019-01-27T21:53:06.695Z,80.78
2019-01-27T21:55:39.103Z,80.86
2019-01-27T21:58:21.460Z,81.02
2019-01-27T22:00:52.793Z,81.00
2019-01-27T22:03:27.559Z,81.03
2019-01-27T22:06:01.018Z,81.13
2019-01-27T22:08:33.859Z,81.11
2019-01-27T22:11:04.534Z,81.17
2019-01-27T22:13:35.277Z,81.17
2019-01-27T22:16:15.668Z,80.73
2019-01-27T22:18:43.896Z,80.53
2019-01-27T22:21:14.474Z,80.42
2019-01-27T22:23:44.954Z,80.42
2019-01-27T22:26:15.305Z,80.30
2019-01-27T22:28:45.922Z,80.23
2019-01-27T22:31:17.879Z,80.20
2019-01-27T22:33:48.218Z,80.12
2019-01-27T22:36:23.372Z,80.23
2019-01-27T22:38:55.563Z,80.16
2019-01-27T22:41:26.236Z,79.95
2019-01-27T22:43:56.605Z,79.84
2019-01-27T22:46:27.295Z,79.91
2019-01-27T22:48:58.967Z,79.63
2019-01-27T22:51:31.294Z,79.52
2019-01-27T22:54:01.821Z,79.45
2019-01-27T22:56:32.569Z,79.48
2019-01-27T22:59:02.933Z,79.39
2019-01-27T23:01:37.840Z,79.37
2019-01-27T23:04:08.929Z,79.12
2019-01-27T23:06:40.637Z,79.40
2019-01-27T23:09:17.258Z,79.40
2019-01-27T23:11:47.773Z,79.09
2019-01-27T23:14:18.478Z,79.03
2019-01-27T23:16:50.008Z,79.05
2019-01-27T23:19:20.556Z,78.84
2019-01-27T23:21:54.930Z,78.73
2019-01-27T23:24:25.961Z,78.75
2019-01-27T23:26:56.416Z,78.53
2019-01-27T23:29:27.009Z,78.55
2019-01-27T23:32:01.534Z,78.75
2019-01-27T23:34:32.020Z,78.83
2019-01-27T23:37:02.784Z,78.59
2019-01-27T23:39:33.069Z,78.70
2019-01-27T23:42:03.806Z,78.62
2019-01-27T23:44:37.313Z,78.64
2019-01-27T23:47:08.081Z,78.65
2019-01-27T23:49:38.441Z,78.76
2019-01-27T23:52:08.861Z,78.83
2019-01-27T23:54:39.282Z,79.03
2019-01-27T23:57:11.015Z,78.89
2019-01-27T23:59:41.279Z,78.88
